Time;durP1;ratioP1;P1;durP2;ratioP2;P2;SDS_P1;SDS_P2;PMS_P1;PMS_P2;Temp;Humidity;BMP_temperature;BMP_pressure;BME280_temperature;BME280_humidity;BME280_pressure;Samples;Min_cycle;Max_cycle;Signal;HPM_P1;HPM_P2
2022/07/05 00:02:16;;;;;;;4.70;2.47;;;-12.30;99.90;;;;;;5065440;28;20175;-69
2022/07/05 00:04:42;;;;;;;2.67;2.47;;;-13.10;99.90;;;;;;5066029;28;20187;-75
2022/07/05 00:07:17;;;;;;;4.83;2.53;;;-15.00;99.90;;;;;;5062923;28;20176;-75
2022/07/05 00:09:44;;;;;;;4.10;2.40;;;-15.40;99.90;;;;;;5064118;28;20186;-72
2022/07/05 00:12:12;;;;;;;3.37;3.17;;;-13.60;99.90;;;;;;5067559;28;20237;-70
2022/07/05 00:14:38;;;;;;;7.07;3.40;;;-17.30;99.90;;;;;;5065367;28;20180;-71
2022/07/05 00:17:05;;;;;;;2.73;2.43;;;-17.70;99.90;;;;;;5063990;28;20555;-73
2022/07/05 00:19:31;;;;;;;3.90;3.57;;;-16.50;99.90;;;;;;5067327;28;20203;-71
2022/07/05 00:21:57;;;;;;;4.50;2.27;;;-13.90;99.90;;;;;;5069083;28;20175;-74
2022/07/05 00:24:24;;;;;;;8.00;3.10;;;-15.50;99.90;;;;;;5068163;28;20163;-76
2022/07/05 00:26:50;;;;;;;5.83;3.83;;;-15.70;99.90;;;;;;5070075;28;20180;-73
2022/07/05 00:29:16;;;;;;;3.53;3.23;;;-18.90;99.90;;;;;;5068529;28;20486;-71
2022/07/05 00:31:41;;;;;;;5.13;2.40;;;-17.70;99.90;;;;;;5068843;28;20171;-77
2022/07/05 00:34:07;;;;;;;2.77;2.23;;;-17.00;99.90;;;;;;5069978;28;20183;-72
2022/07/05 00:36:33;;;;;;;2.73;2.53;;;-14.30;99.90;;;;;;5067044;28;20630;-76
2022/07/05 00:39:00;;;;;;;4.10;2.57;;;-15.80;99.90;;;;;;5070469;28;20188;-76
2022/07/05 00:41:26;;;;;;;5.93;3.70;;;-14.30;99.90;;;;;;5067744;28;20606;-76
2022/07/05 00:44:00;;;;;;;4.20;2.57;;;-15.80;99.90;;;;;;5069005;28;20171;-77
2022/07/05 00:46:27;;;;;;;3.07;2.77;;;-14.10;99.90;;;;;;5069544;28;20167;-73
2022/07/05 00:48:53;;;;;;;2.63;2.43;;;-14.10;99.90;;;;;;5067234;28;20237;-77
2022/07/05 00:51:21;;;;;;;3.33;3.00;;;-14.90;99.90;;;;;;5068477;28;20194;-73
2022/07/05 00:53:48;;;;;;;2.50;2.30;;;-15.20;99.90;;;;;;5068773;28;20168;-77
2022/07/05 00:56:14;;;;;;;3.63;2.40;;;-13.70;99.90;;;;;;5067816;28;20254;-71
2022/07/05 00:58:41;;;;;;;2.40;2.30;;;-15.50;99.90;;;;;;5067429;28;20255;-76
2022/07/05 01:01:08;;;;;;;3.93;2.47;;;-16.20;99.90;;;;;;5069309;28;20210;-75
2022/07/05 01:03:34;;;;;;;2.50;2.30;;;-16.10;99.90;;;;;;5067454;28;20172;-71
2022/07/05 01:06:02;;;;;;;2.60;2.30;;;-16.80;99.90;;;;;;5067469;28;20225;-76
2022/07/05 01:08:29;;;;;;;4.00;2.50;;;-16.10;99.90;;;;;;5068921;28;20207;-77
2022/07/05 01:10:55;;;;;;;3.53;2.40;;;-17.10;99.90;;;;;;5066274;28;20175;-73
2022/07/05 01:13:25;;;;;;;2.33;2.13;;;-20.00;99.90;;;;;;5068267;28;20246;-75
2022/07/05 01:15:51;;;;;;;3.47;2.70;;;-24.00;99.90;;;;;;5069150;28;20526;-76
2022/07/05 01:18:19;;;;;;;5.00;3.03;;;-21.50;99.90;;;;;;5067460;28;20175;-73
2022/07/05 01:20:48;;;;;;;2.03;1.93;;;-20.70;99.90;;;;;;5067361;28;20278;-74
2022/07/05 01:23:14;;;;;;;3.03;2.63;;;-18.40;99.90;;;;;;5068798;28;20214;-74
2022/07/05 01:25:41;;;;;;;2.33;2.13;;;-19.60;99.90;;;;;;5066576;28;20172;-72
2022/07/05 01:28:06;;;;;;;2.97;2.77;;;-19.60;99.90;;;;;;5067624;28;20175;-76
2022/07/05 01:30:35;;;;;;;3.03;2.83;;;-14.60;99.90;;;;;;5068553;28;20187;-74
2022/07/05 01:33:01;;;;;;;2.70;2.50;;;-16.60;99.90;;;;;;5066733;28;20263;-75
2022/07/05 01:35:27;;;;;;;4.17;2.50;;;-14.30;99.90;;;;;;5067275;28;20175;-72
2022/07/05 01:37:53;;;;;;;3.53;2.17;;;-16.70;99.90;;;;;;5068341;28;20613;-77
2022/07/05 01:40:20;;;;;;;2.70;2.13;;;-16.40;99.90;;;;;;5067060;28;20196;-73
2022/07/05 01:42:46;;;;;;;4.60;2.50;;;-13.10;99.90;;;;;;5067416;28;20179;-75
2022/07/05 01:45:38;;;;;;;2.67;2.37;;;-16.80;99.90;;;;;;5068482;28;20179;-75
2022/07/05 01:48:00;;;;;;;2.43;2.33;;;-17.80;99.90;;;;;;5068124;28;20279;-77
2022/07/05 01:50:31;;;;;;;3.43;3.13;;;-14.50;99.90;;;;;;5067600;28;20590;-76
2022/07/05 01:52:58;;;;;;;3.90;2.83;;;-15.50;99.90;;;;;;5066565;28;20583;-70
2022/07/05 01:55:24;;;;;;;2.40;2.30;;;-19.10;99.90;;;;;;5069020;28;20210;-73
2022/07/05 01:57:50;;;;;;;2.17;2.00;;;-18.80;99.90;;;;;;5065715;28;20172;-68
2022/07/05 02:00:16;;;;;;;5.37;2.77;;;-17.60;99.90;;;;;;5068865;28;20264;-77
2022/07/05 02:02:42;;;;;;;2.60;2.50;;;-16.20;99.90;;;;;;5067757;28;20169;-74
2022/07/05 02:05:08;;;;;;;2.73;2.63;;;-16.30;99.90;;;;;;5067070;28;20199;-69
2022/07/05 02:07:34;;;;;;;6.67;3.80;;;-16.30;99.90;;;;;;5066379;28;20218;-73
2022/07/05 02:10:00;;;;;;;4.30;2.60;;;-15.10;99.90;;;;;;5067918;28;20183;-72
2022/07/05 02:12:25;;;;;;;2.60;2.40;;;-18.00;99.90;;;;;;5067067;28;20175;-73
2022/07/05 02:14:51;;;;;;;5.43;2.73;;;-17.80;99.90;;;;;;5065326;28;20270;-66
2022/07/05 02:17:17;;;;;;;3.70;2.83;;;-17.00;99.90;;;;;;5068172;28;20187;-68
2022/07/05 02:19:42;;;;;;;3.03;2.83;;;-14.20;99.90;;;;;;5066141;28;20204;-67
2022/07/05 02:22:08;;;;;;;2.87;2.67;;;-17.70;99.90;;;;;;5066860;28;20186;-69
2022/07/05 02:24:34;;;;;;;2.43;2.33;;;-14.80;99.90;;;;;;5067949;28;20259;-70
2022/07/05 02:27:00;;;;;;;2.80;2.53;;;-18.60;99.90;;;;;;5066053;28;20244;-77
2022/07/05 02:29:25;;;;;;;4.17;2.40;;;-22.00;99.90;;;;;;5067214;28;20259;-74
2022/07/05 02:31:51;;;;;;;3.97;2.90;;;-16.80;99.90;;;;;;5067088;28;20251;-75
2022/07/05 02:34:17;;;;;;;2.70;2.50;;;-15.80;99.90;;;;;;5065516;28;20168;-67
2022/07/05 02:36:43;;;;;;;3.20;2.90;;;-15.40;99.90;;;;;;5067171;28;20183;-69
2022/07/05 02:39:08;;;;;;;5.10;3.50;;;-13.20;99.90;;;;;;5066815;28;20212;-71
2022/07/05 02:41:34;;;;;;;4.43;2.97;;;-17.00;99.90;;;;;;5065202;28;20286;-69
2022/07/05 02:44:00;;;;;;;5.50;3.03;;;-16.80;99.90;;;;;;5066285;28;20171;-68
2022/07/05 02:46:26;;;;;;;6.00;3.50;;;-18.50;99.90;;;;;;5066065;28;20187;-70
2022/07/05 02:48:52;;;;;;;3.30;3.00;;;-16.30;99.90;;;;;;5065454;28;20191;-71
2022/07/05 02:51:18;;;;;;;3.43;3.13;;;-14.10;99.90;;;;;;5067316;28;20177;-67
2022/07/05 02:53:44;;;;;;;4.10;3.70;;;-17.20;99.90;;;;;;5067445;28;20426;-67
2022/07/05 02:56:09;;;;;;;3.57;3.27;;;-17.00;99.90;;;;;;5066298;28;20225;-67
2022/07/05 02:58:38;;;;;;;6.23;3.73;;;-14.20;99.90;;;;;;5065693;28;20240;-70
2022/07/05 03:01:06;;;;;;;2.97;2.77;;;-18.40;99.90;;;;;;5065222;28;20302;-73
2022/07/05 03:03:32;;;;;;;4.13;2.43;;;-17.60;99.90;;;;;;5065494;28;20167;-74
2022/07/05 03:05:58;;;;;;;5.47;2.83;;;-16.10;99.90;;;;;;5066719;28;20641;-74
2022/07/05 03:08:23;;;;;;;9.17;3.30;;;-16.00;99.90;;;;;;5065177;28;20187;-76
2022/07/05 03:10:49;;;;;;;8.90;3.30;;;-14.70;99.90;;;;;;5066241;28;20199;-68
2022/07/05 03:13:15;;;;;;;6.43;2.50;;;-17.80;99.90;;;;;;5066718;28;20202;-77
2022/07/05 03:15:42;;;;;;;6.17;3.20;;;-17.80;99.90;;;;;;5064749;28;20602;-66
2022/07/05 03:18:08;;;;;;;4.40;3.27;;;-19.20;99.90;;;;;;5066156;28;20179;-75
2022/07/05 03:20:34;;;;;;;2.70;2.50;;;-18.80;99.90;;;;;;5066313;28;20195;-69
2022/07/05 03:22:59;;;;;;;7.57;3.97;;;-21.20;99.90;;;;;;5063654;28;20168;-73
2022/07/05 03:25:25;;;;;;;3.87;3.67;;;-24.20;99.90;;;;;;5066440;28;20171;-76
2022/07/05 03:27:51;;;;;;;3.50;3.20;;;-22.50;99.90;;;;;;5065528;28;20579;-69
2022/07/05 03:30:17;;;;;;;5.07;3.03;;;-18.90;99.90;;;;;;5065124;28;20175;-75
2022/07/05 03:32:42;;;;;;;3.73;3.50;;;-22.50;99.90;;;;;;5065273;28;20266;-72
2022/07/05 03:35:08;;;;;;;3.93;2.87;;;-19.40;99.90;;;;;;5063864;28;20634;-70
2022/07/05 03:37:34;;;;;;;6.73;3.73;;;-20.50;99.90;;;;;;5064093;28;20187;-73
2022/07/05 03:40:00;;;;;;;3.37;2.57;;;-17.90;99.90;;;;;;5065387;28;20237;-72
2022/07/05 03:42:26;;;;;;;3.47;3.23;;;-19.90;99.90;;;;;;5064291;28;20582;-69
2022/07/05 03:44:51;;;;;;;3.20;3.00;;;-17.80;99.90;;;;;;5065648;28;20197;-66
2022/07/05 03:47:17;;;;;;;5.97;3.80;;;-14.90;99.90;;;;;;5064591;28;20488;-67
2022/07/05 03:49:43;;;;;;;3.37;2.67;;;-18.00;99.90;;;;;;5064396;28;20184;-72
2022/07/05 03:52:08;;;;;;;3.03;2.83;;;-16.10;99.90;;;;;;5065769;28;20182;-74
2022/07/05 03:54:34;;;;;;;3.63;3.33;;;-15.80;99.90;;;;;;5064813;28;20594;-75
2022/07/05 03:57:00;;;;;;;3.53;3.17;;;-16.00;99.90;;;;;;5064420;28;20175;-68
2022/07/05 03:59:26;;;;;;;2.47;2.37;;;-19.20;99.90;;;;;;5065154;28;20179;-76
2022/07/05 04:01:51;;;;;;;3.70;3.40;;;-21.00;99.90;;;;;;5064282;28;20251;-76
2022/07/05 04:04:17;;;;;;;3.13;2.93;;;-21.60;99.90;;;;;;5064840;28;20205;-68
2022/07/05 04:06:43;;;;;;;3.00;2.80;;;-19.10;99.90;;;;;;5064959;28;20182;-76
2022/07/05 04:09:09;;;;;;;4.13;3.17;;;-22.50;99.90;;;;;;5063228;28;20180;-67
2022/07/05 04:11:34;;;;;;;3.90;3.60;;;-23.80;99.90;;;;;;5064157;28;20232;-77
2022/07/05 04:14:00;;;;;;;4.70;4.30;;;-23.50;99.90;;;;;;5065882;28;20595;-76
2022/07/05 04:16:26;;;;;;;3.97;3.77;;;-21.10;99.90;;;;;;5062905;28;20460;-77
2022/07/05 04:18:52;;;;;;;3.03;2.83;;;-24.00;99.90;;;;;;5065480;28;20213;-75
2022/07/05 04:21:17;;;;;;;3.33;3.03;;;-24.90;99.90;;;;;;5064287;28;20200;-77
2022/07/05 04:23:43;;;;;;;4.47;3.53;;;-25.50;99.90;;;;;;5064063;28;20183;-76
2022/07/05 04:26:09;;;;;;;4.07;3.67;;;-25.90;99.90;;;;;;5066044;28;20183;-75
2022/07/05 04:28:35;;;;;;;3.60;3.03;;;-21.40;99.90;;;;;;5064637;28;20195;-70
2022/07/05 04:31:01;;;;;;;3.20;3.00;;;-26.90;99.90;;;;;;5064119;28;20167;-73
2022/07/05 04:33:26;;;;;;;4.93;2.83;;;-21.70;99.90;;;;;;5065949;28;20212;-72
2022/07/05 04:35:52;;;;;;;4.03;2.93;;;-24.60;99.90;;;;;;5063207;28;20182;-74
2022/07/05 04:38:18;;;;;;;4.00;3.67;;;-23.10;99.90;;;;;;5063193;28;20256;-76
2022/07/05 04:40:44;;;;;;;4.47;3.50;;;-21.90;99.90;;;;;;5065729;28;20243;-70
2022/07/05 04:43:09;;;;;;;5.23;3.53;;;-26.70;99.90;;;;;;5063678;28;20172;-71
2022/07/05 04:45:35;;;;;;;3.80;3.47;;;-24.30;99.90;;;;;;5064994;28;20171;-76
2022/07/05 04:48:01;;;;;;;4.40;3.23;;;-21.40;99.90;;;;;;5065140;28;20594;-73
2022/07/05 04:50:27;;;;;;;5.40;3.97;;;-25.30;99.90;;;;;;5063722;28;20222;-75
2022/07/05 04:52:53;;;;;;;4.57;3.60;;;-25.20;99.90;;;;;;5065389;28;20175;-70
2022/07/05 04:55:19;;;;;;;7.83;3.87;;;-24.70;99.90;;;;;;5064848;28;20180;-68
2022/07/05 04:57:45;;;;;;;4.30;3.87;;;-25.80;99.90;;;;;;5063764;28;20180;-71
2022/07/05 05:00:13;;;;;;;4.90;3.13;;;-24.50;99.90;;;;;;5065284;28;20202;-67
2022/07/05 05:02:40;;;;;;;4.43;4.03;;;-26.80;99.90;;;;;;5064884;28;20168;-69
2022/07/05 05:05:06;;;;;;;5.47;4.17;;;-28.10;99.90;;;;;;5062721;28;20178;-67
2022/07/05 05:07:33;;;;;;;4.10;3.73;;;-33.70;99.90;;;;;;5069750;28;20220;-68
2022/07/05 05:09:58;;;;;;;12.33;4.03;;;-34.80;99.90;;;;;;5068136;28;20179;-68
2022/07/05 05:12:24;;;;;;;3.70;3.47;;;-26.10;99.90;;;;;;5067513;28;20175;-66
2022/07/05 05:14:51;;;;;;;4.47;4.07;;;-24.50;99.90;;;;;;5068747;28;20174;-67
2022/07/05 05:17:17;;;;;;;7.70;4.87;;;-20.80;99.90;;;;;;5067926;28;20176;-66
2022/07/05 05:19:44;;;;;;;7.43;4.23;;;-19.70;99.90;;;;;;5067767;28;20217;-67
2022/07/05 05:22:10;;;;;;;9.47;3.50;;;-34.80;99.90;;;;;;5068970;28;20174;-69
2022/07/05 05:24:36;;;;;;;8.60;4.47;;;-22.50;99.90;;;;;;5067349;28;20179;-69
2022/07/05 05:27:02;;;;;;;3.83;3.50;;;-27.90;99.90;;;;;;5067886;28;20167;-68
2022/07/05 05:29:28;;;;;;;2.97;2.70;;;-25.80;99.90;;;;;;5068651;28;20172;-71
2022/07/05 05:31:54;;;;;;;4.53;3.47;;;-24.50;99.90;;;;;;5066670;28;20179;-66
2022/07/05 05:34:20;;;;;;;3.93;3.10;;;-28.10;99.90;;;;;;5066826;28;20225;-72
2022/07/05 05:36:46;;;;;;;2.80;2.60;;;-28.40;99.90;;;;;;5067077;28;20195;-68
2022/07/05 05:39:12;;;;;;;7.57;3.27;;;-29.00;99.90;;;;;;5066554;28;20241;-68
2022/07/05 05:41:38;;;;;;;6.93;3.17;;;-27.40;99.90;;;;;;5068175;28;20530;-76
2022/07/05 05:44:04;;;;;;;6.70;2.67;;;-25.80;99.90;;;;;;5067285;28;20164;-66
2022/07/05 05:46:30;;;;;;;9.37;3.00;;;-29.70;99.90;;;;;;5065403;28;20181;-67
2022/07/05 05:48:56;;;;;;;4.07;3.07;;;-28.40;99.90;;;;;;5068315;28;20198;-68
2022/07/05 05:51:22;;;;;;;2.57;2.37;;;-27.30;99.90;;;;;;5067315;28;20568;-68
2022/07/05 05:53:48;;;;;;;4.13;3.00;;;-34.80;99.90;;;;;;5066745;28;20222;-69
2022/07/05 05:56:14;;;;;;;5.60;4.00;;;-26.80;99.90;;;;;;5068540;28;20471;-70
2022/07/05 05:58:39;;;;;;;4.00;3.67;;;-35.00;99.90;;;;;;5066798;28;20245;-67
2022/07/05 06:01:05;;;;;;;5.73;4.37;;;-28.60;99.90;;;;;;5066787;28;20218;-68
2022/07/05 06:03:31;;;;;;;4.57;3.97;;;-28.20;99.90;;;;;;5066598;28;20228;-69
2022/07/05 06:05:57;;;;;;;4.40;3.63;;;-35.40;99.90;;;;;;5066062;28;20526;-68
2022/07/05 06:08:23;;;;;;;6.07;3.83;;;-25.80;99.90;;;;;;5066061;28;20225;-70
2022/07/05 06:10:49;;;;;;;7.57;4.47;;;-25.80;99.90;;;;;;5067565;28;20184;-68
2022/07/05 06:13:15;;;;;;;4.27;2.67;;;-22.60;99.90;;;;;;5065913;28;20168;-69
2022/07/05 06:15:42;;;;;;;6.50;3.87;;;-20.70;99.90;;;;;;5067632;28;20175;-70
2022/07/05 06:18:09;;;;;;;5.67;3.50;;;-27.90;99.90;;;;;;5067184;28;20194;-73
2022/07/05 06:20:36;;;;;;;3.27;2.87;;;-32.10;99.90;;;;;;5068030;28;20196;-68
2022/07/05 06:23:03;;;;;;;8.50;4.00;;;-28.40;99.90;;;;;;5067489;28;20164;-68
2022/07/05 06:25:29;;;;;;;6.20;3.07;;;-29.50;99.90;;;;;;5067462;28;20164;-68
2022/07/05 06:28:03;;;;;;;8.07;4.10;;;-20.80;99.90;;;;;;5065602;28;20179;-68
2022/07/05 06:30:31;;;;;;;10.77;3.67;;;-20.50;99.90;;;;;;5064950;28;20528;-68
2022/07/05 06:33:00;;;;;;;4.23;2.93;;;-18.80;99.90;;;;;;5067861;28;20203;-70
2022/07/05 06:35:27;;;;;;;4.77;2.93;;;-25.50;99.90;;;;;;5066559;28;20175;-68
2022/07/05 06:37:54;;;;;;;5.87;3.00;;;-23.90;99.90;;;;;;5065689;28;20190;-70
2022/07/05 06:40:32;;;;;;;5.23;3.30;;;-33.50;99.90;;;;;;5067385;28;20199;-69
2022/07/05 06:43:00;;;;;;;5.63;2.93;;;-27.20;99.90;;;;;;5067635;28;20163;-68
2022/07/05 06:45:26;;;;;;;4.33;2.83;;;-36.10;99.90;;;;;;5066428;28;20171;-67
2022/07/05 06:48:09;;;;;;;4.73;3.23;;;-26.70;99.90;;;;;;5065714;28;20187;-68
2022/07/05 06:50:38;;;;;;;15.33;4.03;;;-28.40;99.90;;;;;;5067488;28;20178;-68
2022/07/05 06:53:05;;;;;;;5.83;3.80;;;-28.00;99.90;;;;;;5065935;28;20580;-71
2022/07/05 06:55:31;;;;;;;13.57;4.20;;;-25.00;99.90;;;;;;5065667;28;20201;-71
2022/07/05 06:57:58;;;;;;;9.40;2.90;;;-19.60;99.90;;;;;;5069597;28;20182;-68
2022/07/05 07:00:25;;;;;;;7.80;3.20;;;-20.20;99.90;;;;;;5065788;28;20198;-71
2022/07/05 07:02:51;;;;;;;4.03;2.40;;;-23.00;99.90;;;;;;5065885;28;20166;-71
2022/07/05 07:05:17;;;;;;;5.43;4.00;;;-27.10;99.90;;;;;;5067187;28;20529;-69
2022/07/05 07:10:27;;;;;;;6.77;3.30;;;-24.90;99.90;;;;;;5065726;28;20182;-73
2022/07/05 07:12:53;;;;;;;6.77;3.67;;;-26.70;99.90;;;;;;5065498;28;20258;-75
2022/07/05 07:15:18;;;;;;;7.40;3.67;;;-28.50;99.90;;;;;;5066941;28;20626;-68
2022/07/05 07:17:44;;;;;;;5.23;4.67;;;-28.50;99.90;;;;;;5065207;28;20255;-68
2022/07/05 07:20:10;;;;;;;5.10;3.70;;;-25.90;99.90;;;;;;5064640;28;20195;-67
2022/07/05 07:22:36;;;;;;;5.13;3.90;;;-32.50;99.90;;;;;;5066845;28;20257;-67
2022/07/05 07:25:04;;;;;;;6.27;3.30;;;-29.20;99.90;;;;;;5064267;28;20172;-66
2022/07/05 07:27:31;;;;;;;7.60;4.10;;;-33.60;99.90;;;;;;5065488;28;20254;-69
2022/07/05 07:29:57;;;;;;;11.07;5.07;;;-27.70;99.90;;;;;;5066680;28;20178;-68
2022/07/05 07:32:22;;;;;;;13.30;5.57;;;-25.00;99.90;;;;;;5066481;28;20194;-67
2022/07/05 07:34:48;;;;;;;10.80;3.93;;;-29.80;99.90;;;;;;5064882;28;20581;-67
2022/07/05 07:37:14;;;;;;;5.93;3.43;;;-27.10;99.90;;;;;;5065243;28;20199;-67
2022/07/05 07:39:40;;;;;;;6.37;4.47;;;-24.10;99.90;;;;;;5066266;28;20176;-67
2022/07/05 07:42:07;;;;;;;5.50;4.40;;;-18.60;99.90;;;;;;5063443;28;20199;-68
2022/07/05 07:44:33;;;;;;;5.27;3.43;;;-19.80;99.90;;;;;;5065201;28;20567;-68
2022/07/05 07:46:59;;;;;;;9.83;3.27;;;-21.50;99.90;;;;;;5065413;28;20263;-69
2022/07/05 07:49:24;;;;;;;6.77;3.27;;;-25.00;99.90;;;;;;5064479;28;20192;-68
2022/07/05 07:51:51;;;;;;;10.27;5.33;;;-25.00;99.90;;;;;;5065659;28;20202;-67
2022/07/05 07:54:17;;;;;;;7.60;4.47;;;-26.60;99.90;;;;;;5065875;28;20626;-67
2022/07/05 07:56:43;;;;;;;7.30;4.43;;;-30.00;99.90;;;;;;5064129;28;20255;-68
2022/07/05 07:59:09;;;;;;;7.20;4.03;;;-24.10;99.90;;;;;;5064765;28;20206;-68
2022/07/05 08:01:35;;;;;;;9.13;5.80;;;-19.90;99.90;;;;;;5062514;28;20203;-69
2022/07/05 08:04:01;;;;;;;11.63;4.03;;;-28.30;99.90;;;;;;5066210;28;20516;-68
2022/07/05 08:06:27;;;;;;;10.37;4.40;;;-38.70;99.90;;;;;;5066227;28;20176;-67
2022/07/05 08:08:53;;;;;;;11.27;4.37;;;-40.00;99.90;;;;;;5064714;28;20271;-69
2022/07/05 08:11:19;;;;;;;3.93;3.53;;;-32.90;99.00;;;;;;5063435;28;20186;-70
2022/07/05 08:13:44;;;;;;;7.43;4.63;;;-40.00;97.50;;;;;;5066163;28;20239;-67
2022/07/05 08:16:11;;;;;;;9.77;3.87;;;-29.80;99.90;;;;;;5064681;28;20180;-68
2022/07/05 08:21:39;;;;;;;7.43;3.90;;;-30.50;99.90;;;;;;5066051;28;21409;-66
2022/07/05 08:24:08;;;;;;;9.27;4.07;;;-30.40;99.90;;;;;;5066009;28;20163;-67
2022/07/05 08:26:35;;;;;;;8.70;3.90;;;-23.90;99.90;;;;;;5064978;28;20168;-67
2022/07/05 08:29:02;;;;;;;9.23;3.63;;;-32.40;99.90;;;;;;5064115;28;20663;-67
2022/07/05 08:31:29;;;;;;;18.77;5.87;;;-31.30;99.40;;;;;;5064187;28;20484;-67
2022/07/05 08:33:56;;;;;;;7.70;4.50;;;-40.00;96.00;;;;;;5064860;28;20174;-67
2022/07/05 08:36:22;;;;;;;5.67;4.80;;;-40.00;94.60;;;;;;5065385;28;20187;-68
2022/07/05 08:38:47;;;;;;;5.33;3.50;;;-36.50;95.40;;;;;;5062660;28;20188;-68
2022/07/05 08:41:18;;;;;;;4.77;3.93;;;-38.70;94.80;;;;;;5067543;28;20280;-67
2022/07/05 08:43:45;;;;;;;8.40;4.90;;;-32.80;95.80;;;;;;5068683;28;20179;-67
2022/07/05 08:46:13;;;;;;;7.17;3.93;;;-39.00;93.60;;;;;;5068180;28;20176;-66
2022/07/05 08:48:42;;;;;;;6.03;3.13;;;-30.80;96.50;;;;;;5067267;28;20498;-67
2022/07/05 08:51:22;;;;;;;6.60;3.43;;;-29.40;95.20;;;;;;5069362;28;20240;-70
2022/07/05 08:53:52;;;;;;;5.70;3.30;;;-35.00;95.80;;;;;;5069721;28;20163;-66
2022/07/05 08:56:19;;;;;;;6.43;4.50;;;-24.30;99.50;;;;;;5068987;28;20486;-66
2022/07/05 08:58:45;;;;;;;7.40;4.60;;;-23.20;99.70;;;;;;5067748;28;20195;-79
2022/07/05 09:01:13;;;;;;;6.13;4.57;;;-27.50;96.60;;;;;;5066614;28;20749;-71
2022/07/05 09:03:48;;;;;;;8.03;3.83;;;-32.50;94.00;;;;;;5068321;28;20167;-67
2022/07/05 09:06:17;;;;;;;4.50;3.00;;;-20.70;99.00;;;;;;5067462;28;20176;-67
2022/07/05 09:08:44;;;;;;;9.70;3.43;;;-17.40;98.60;;;;;;5067710;28;20517;-69
2022/07/05 09:11:15;;;;;;;7.13;3.13;;;-21.60;97.40;;;;;;5069304;28;20175;-66
2022/07/05 09:13:44;;;;;;;5.63;3.23;;;-28.90;95.70;;;;;;5067641;28;20206;-67
2022/07/05 09:16:11;;;;;;;4.70;3.13;;;-25.50;96.70;;;;;;5067196;28;20214;-69
2022/07/05 09:18:44;;;;;;;7.43;2.33;;;-23.60;95.70;;;;;;5067339;28;20180;-78
2022/07/05 09:21:21;;;;;;;5.33;3.20;;;-22.10;96.00;;;;;;5068914;28;20202;-80
2022/07/05 09:23:55;;;;;;;9.03;2.80;;;-26.50;95.30;;;;;;5069243;28;20179;-74
2022/07/05 09:26:26;;;;;;;3.47;2.60;;;-27.70;93.60;;;;;;5068403;28;20180;-79
2022/07/05 09:28:57;;;;;;;5.23;2.83;;;-23.70;94.40;;;;;;5066931;28;20164;-80
2022/07/05 09:31:44;;;;;;;8.00;4.03;;;-23.50;94.70;;;;;;5067649;28;20228;-79
2022/07/05 09:34:20;;;;;;;6.33;3.93;;;-17.60;96.10;;;;;;5067874;28;20175;-75
2022/07/05 09:36:51;;;;;;;3.20;2.53;;;-20.40;94.40;;;;;;5066727;28;20191;-79
2022/07/05 09:39:33;;;;;;;4.83;2.80;;;-17.20;97.00;;;;;;5067449;28;20179;-70
2022/07/05 09:42:23;;;;;;;5.87;3.63;;;-24.30;94.40;;;;;;5067810;28;20234;-78
2022/07/05 09:44:54;;;;;;;7.53;3.23;;;-25.50;93.90;;;;;;5067659;28;20224;-81
2022/07/05 09:47:26;;;;;;;4.77;3.30;;;-21.00;94.70;;;;;;5067510;28;20232;-79
2022/07/05 09:49:53;;;;;;;3.40;3.10;;;-28.30;92.30;;;;;;5066618;28;20548;-78
2022/07/05 09:52:39;;;;;;;7.17;2.90;;;-31.00;91.10;;;;;;5066747;28;20475;-80
2022/07/05 09:55:17;;;;;;;4.43;3.10;;;10.50;99.90;;;;;;5068060;28;20172;-77
2022/07/05 09:57:44;;;;;;;11.57;4.40;;;21.20;99.90;;;;;;5067959;28;20587;-82
2022/07/05 10:00:18;;;;;;;3.80;3.50;;;21.30;99.90;;;;;;5066122;28;20254;-71
2022/07/05 10:02:50;;;;;;;3.73;3.00;;;21.10;99.90;;;;;;5067575;28;20174;-70
2022/07/05 10:05:21;;;;;;;9.37;5.03;;;21.10;99.90;;;;;;5068108;28;20238;-67
2022/07/05 10:07:48;;;;;;;8.13;4.33;;;21.40;99.90;;;;;;5067439;28;20174;-70
2022/07/05 10:10:16;;;;;;;8.50;4.43;;;21.30;99.90;;;;;;5068547;28;20179;-71
2022/07/05 10:12:43;;;;;;;11.97;4.30;;;20.70;99.90;;;;;;5067313;28;20168;-67
2022/07/05 10:15:11;;;;;;;7.90;3.40;;;-36.40;85.40;;;;;;5065146;28;20175;-67
2022/07/05 10:17:41;;;;;;;11.23;4.93;;;-27.50;90.50;;;;;;5066558;28;20259;-69
2022/07/05 10:20:24;;;;;;;7.37;5.13;;;-31.50;86.90;;;;;;5066291;28;20202;-68
2022/07/05 10:22:50;;;;;;;6.37;3.27;;;-31.30;87.10;;;;;;5067842;28;20171;-69
2022/07/05 10:25:16;;;;;;;5.00;3.57;;;-28.00;86.20;;;;;;5064974;28;20175;-77
2022/07/05 10:27:42;;;;;;;5.67;2.70;;;-29.20;80.00;;;;;;5067291;28;20171;-78
2022/07/05 10:30:09;;;;;;;7.73;4.07;;;-23.10;82.30;;;;;;5067559;28;20258;-77
2022/07/05 10:32:37;;;;;;;5.73;3.63;;;-17.30;88.20;;;;;;5065448;28;20179;-80
2022/07/05 10:35:04;;;;;;;5.80;3.53;;;-13.80;86.10;;;;;;5066771;28;20589;-80
2022/07/05 10:37:33;;;;;;;5.47;3.83;;;-16.90;86.30;;;;;;5067592;28;20276;-70
2022/07/05 10:40:00;;;;;;;4.27;2.97;;;-18.20;83.80;;;;;;5065822;28;20633;-71
2022/07/05 10:42:31;;;;;;;6.00;3.50;;;-20.20;83.50;;;;;;5066430;28;20171;-71
2022/07/05 10:44:56;;;;;;;5.80;3.37;;;-20.70;84.90;;;;;;5067631;28;20182;-68
2022/07/05 10:47:22;;;;;;;8.00;3.37;;;20.10;97.50;;;;;;5067245;28;20195;-74
2022/07/05 10:50:05;;;;;;;3.43;3.13;;;22.60;98.90;;;;;;5066761;28;20176;-72
2022/07/05 10:52:31;;;;;;;5.00;3.67;;;22.40;98.10;;;;;;5066296;28;20476;-77
2022/07/05 10:55:22;;;;;;;3.47;2.30;;;22.40;98.60;;;;;;5067455;28;20195;-72
2022/07/05 10:58:16;;;;;;;4.57;2.53;;;22.50;98.90;;;;;;5066715;28;20164;-74
2022/07/05 11:00:42;;;;;;;4.03;2.50;;;22.70;98.10;;;;;;5065859;28;20204;-72
2022/07/05 11:03:34;;;;;;;3.83;2.03;;;22.80;98.40;;;;;;5065368;28;20255;-76
2022/07/05 11:06:02;;;;;;;3.90;2.03;;;21.40;97.30;;;;;;5065316;28;20190;-68
2022/07/05 11:08:30;;;;;;;1.60;1.50;;;23.10;96.00;;;;;;5066008;28;20160;-68
2022/07/05 11:11:15;;;;;;;2.57;2.37;;;23.00;95.80;;;;;;5066114;28;20186;-68
2022/07/05 11:13:46;;;;;;;3.50;1.90;;;22.90;97.30;;;;;;5065258;28;20176;-68
2022/07/05 11:16:22;;;;;;;1.90;1.67;;;23.10;96.60;;;;;;5064872;28;20203;-68
2022/07/05 11:19:05;;;;;;;3.97;1.63;;;23.20;95.70;;;;;;5065197;28;20168;-71
2022/07/05 11:21:31;;;;;;;5.23;2.00;;;23.50;95.40;;;;;;5066388;28;20249;-81
2022/07/05 11:24:21;;;;;;;2.70;1.73;;;23.10;95.00;;;;;;5064522;28;20179;-76
2022/07/05 11:26:53;;;;;;;2.53;1.83;;;-18.80;74.10;;;;;;5065673;28;20195;-69
2022/07/05 11:30:04;;;;;;;3.80;1.83;;;-20.50;73.30;;;;;;5064728;28;20187;-67
2022/07/05 11:32:30;;;;;;;2.30;1.47;;;-20.00;72.80;;;;;;5063414;28;20184;-68
2022/07/05 11:35:18;;;;;;;5.30;3.30;;;-27.20;67.60;;;;;;5064680;28;20180;-70
2022/07/05 11:38:07;;;;;;;3.43;1.67;;;-27.20;64.60;;;;;;5064857;28;20227;-74
2022/07/05 11:40:38;;;;;;;1.50;1.33;;;-20.70;67.60;;;;;;5066280;28;20226;-69
2022/07/05 11:43:06;;;;;;;2.13;1.47;;;-17.90;72.80;;;;;;5065026;28;20233;-74
2022/07/05 11:45:34;;;;;;;3.97;1.90;;;-17.20;74.00;;;;;;5064711;28;20199;-68
2022/07/05 11:48:03;;;;;;;2.93;1.40;;;-12.70;76.60;;;;;;5065339;28;20631;-68
2022/07/05 11:50:34;;;;;;;3.47;1.87;;;-17.10;74.70;;;;;;5065439;28;20175;-68
2022/07/05 11:53:00;;;;;;;3.53;1.07;;;-9.70;77.20;;;;;;5063996;28;20176;-68
2022/07/05 11:55:28;;;;;;;1.67;1.20;;;-10.10;78.40;;;;;;5066070;28;20182;-68
2022/07/05 11:57:56;;;;;;;3.30;1.27;;;-8.80;79.80;;;;;;5065940;28;20641;-69
2022/07/05 12:00:40;;;;;;;12.70;2.13;;;-6.10;80.40;;;;;;5063803;28;20496;-70
2022/07/05 12:03:13;;;;;;;4.40;1.87;;;-10.10;77.90;;;;;;5064736;28;20575;-71
2022/07/05 12:05:42;;;;;;;1.67;1.40;;;-7.10;79.70;;;;;;5064218;28;20178;-69
2022/07/05 12:08:09;;;;;;;2.73;1.67;;;-8.40;78.30;;;;;;5064580;28;20218;-73
2022/07/05 12:13:20;;;;;;;2.03;1.87;;;-9.60;79.20;;;;;;5066395;28;20182;-73
2022/07/05 12:15:46;;;;;;;19.67;3.13;;;-5.60;81.60;;;;;;5063481;28;20175;-68
2022/07/05 12:18:14;;;;;;;9.07;2.30;;;-7.20;80.60;;;;;;5065048;28;20176;-75
2022/07/05 12:20:40;;;;;;;5.83;1.87;;;-19.10;71.70;;;;;;5066095;28;20679;-74
2022/07/05 12:23:07;;;;;;;8.33;2.30;;;-7.90;76.40;;;;;;5064262;28;20172;-72
2022/07/05 12:25:34;;;;;;;6.77;2.03;;;26.00;92.70;;;;;;5065113;28;20183;-80
2022/07/05 12:28:03;;;;;;;9.60;2.33;;;13.60;84.50;;;;;;5065963;28;20168;-75
2022/07/05 12:30:30;;;;;;;5.97;3.27;;;25.80;91.20;;;;;;5064366;28;20492;-70
2022/07/05 12:33:07;;;;;;;1.87;1.67;;;-26.20;57.20;;;;;;5064443;28;20183;-70
2022/07/05 12:35:43;;;;;;;2.17;1.77;;;-21.50;59.90;;;;;;5063989;28;20633;-76
2022/07/05 12:38:14;;;;;;;16.40;3.57;;;-11.70;66.40;;;;;;5063032;28;20200;-68
2022/07/05 12:40:42;;;;;;;2.20;1.50;;;-16.50;62.00;;;;;;5066369;28;20207;-73
2022/07/05 12:43:10;;;;;;;4.30;2.40;;;-36.10;51.80;;;;;;5063858;28;20602;-69
2022/07/05 12:45:37;;;;;;;5.70;2.33;;;-23.90;55.40;;;;;;5063763;28;20199;-68
2022/07/05 12:48:05;;;;;;;8.37;2.10;;;-31.90;52.20;;;;;;5065845;28;20195;-68
2022/07/05 12:50:51;;;;;;;2.63;1.30;;;-22.40;57.80;;;;;;5064335;28;20218;-68
2022/07/05 12:58:57;;;;;;;4.17;2.60;;;26.10;94.30;;;;;;5064246;28;20180;-73